sensor_id;sensor_type;location;lat;lon;timestamp;P1;durP1;ratioP1;P2;durP2;ratioP2
5752;SDS011;2901;42.140;24.760;2024-02-28T00:01:36;21.80;;;8.13;;
5752;SDS011;2901;42.140;24.760;2024-02-28T00:04:02;18.90;;;8.30;;
5752;SDS011;2901;42.140;24.760;2024-02-28T00:06:27;21.93;;;7.97;;
5752;SDS011;2901;42.140;24.760;2024-02-28T00:08:53;13.10;;;7.27;;
5752;SDS011;2901;42.140;24.760;2024-02-28T00:11:20;12.00;;;6.43;;
5752;SDS011;2901;42.140;24.760;2024-02-28T00:13:45;19.80;;;7.78;;
5752;SDS011;2901;42.140;24.760;2024-02-28T00:16:11;16.95;;;6.43;;
5752;SDS011;2901;42.140;24.760;2024-02-28T00:18:36;16.43;;;7.70;;
5752;SDS011;2901;42.140;24.760;2024-02-28T00:21:02;19.08;;;7.60;;
5752;SDS011;2901;42.140;24.760;2024-02-28T00:23:28;19.58;;;7.45;;
5752;SDS011;2901;42.140;24.760;2024-02-28T00:25:54;22.87;;;8.00;;
5752;SDS011;2901;42.140;24.760;2024-02-28T00:28:20;12.27;;;7.30;;
5752;SDS011;2901;42.140;24.760;2024-02-28T00:30:45;21.15;;;7.38;;
5752;SDS011;2901;42.140;24.760;2024-02-28T00:33:11;13.23;;;7.03;;
5752;SDS011;2901;42.140;24.760;2024-02-28T00:35:36;15.40;;;7.13;;
5752;SDS011;2901;42.140;24.760;2024-02-28T00:38:02;14.55;;;7.32;;
5752;SDS011;2901;42.140;24.760;2024-02-28T00:40:28;21.23;;;7.83;;
5752;SDS011;2901;42.140;24.760;2024-02-28T00:42:53;13.87;;;7.53;;
5752;SDS011;2901;42.140;24.760;2024-02-28T00:45:19;12.70;;;7.87;;
5752;SDS011;2901;42.140;24.760;2024-02-28T00:47:44;20.30;;;8.30;;
5752;SDS011;2901;42.140;24.760;2024-02-28T00:50:10;13.23;;;8.50;;
5752;SDS011;2901;42.140;24.760;2024-02-28T00:52:36;17.90;;;9.35;;
5752;SDS011;2901;42.140;24.760;2024-02-28T00:55:02;17.85;;;7.35;;
5752;SDS011;2901;42.140;24.760;2024-02-28T00:57:28;13.93;;;8.05;;
5752;SDS011;2901;42.140;24.760;2024-02-28T00:59:53;21.25;;;7.57;;
5752;SDS011;2901;42.140;24.760;2024-02-28T01:02:20;19.60;;;7.43;;
5752;SDS011;2901;42.140;24.760;2024-02-28T01:04:46;17.80;;;8.10;;
5752;SDS011;2901;42.140;24.760;2024-02-28T01:07:11;15.93;;;7.65;;
5752;SDS011;2901;42.140;24.760;2024-02-28T01:09:37;11.43;;;7.33;;
5752;SDS011;2901;42.140;24.760;2024-02-28T01:12:02;12.57;;;8.27;;
5752;SDS011;2901;42.140;24.760;2024-02-28T01:14:28;16.50;;;6.93;;
5752;SDS011;2901;42.140;24.760;2024-02-28T01:16:54;14.73;;;7.83;;
5752;SDS011;2901;42.140;24.760;2024-02-28T01:19:20;18.88;;;8.23;;
5752;SDS011;2901;42.140;24.760;2024-02-28T01:21:45;17.88;;;8.70;;
5752;SDS011;2901;42.140;24.760;2024-02-28T01:24:10;19.90;;;8.40;;
5752;SDS011;2901;42.140;24.760;2024-02-28T01:26:36;17.27;;;8.07;;
5752;SDS011;2901;42.140;24.760;2024-02-28T01:29:01;13.07;;;7.03;;
5752;SDS011;2901;42.140;24.760;2024-02-28T01:31:27;15.57;;;7.77;;
5752;SDS011;2901;42.140;24.760;2024-02-28T01:33:53;16.53;;;8.73;;
5752;SDS011;2901;42.140;24.760;2024-02-28T01:36:20;20.13;;;7.60;;
5752;SDS011;2901;42.140;24.760;2024-02-28T01:38:46;15.57;;;7.20;;
5752;SDS011;2901;42.140;24.760;2024-02-28T01:41:11;17.67;;;7.67;;
5752;SDS011;2901;42.140;24.760;2024-02-28T01:43:37;22.73;;;7.60;;
5752;SDS011;2901;42.140;24.760;2024-02-28T01:46:03;15.23;;;7.97;;
5752;SDS011;2901;42.140;24.760;2024-02-28T01:48:35;14.00;;;7.43;;
5752;SDS011;2901;42.140;24.760;2024-02-28T01:51:01;15.90;;;7.53;;
5752;SDS011;2901;42.140;24.760;2024-02-28T01:53:27;19.77;;;7.47;;
5752;SDS011;2901;42.140;24.760;2024-02-28T01:55:53;15.93;;;7.37;;
5752;SDS011;2901;42.140;24.760;2024-02-28T01:58:19;16.97;;;7.57;;
5752;SDS011;2901;42.140;24.760;2024-02-28T02:00:45;19.90;;;8.93;;
5752;SDS011;2901;42.140;24.760;2024-02-28T02:03:11;10.67;;;7.17;;
5752;SDS011;2901;42.140;24.760;2024-02-28T02:05:37;17.00;;;7.37;;
5752;SDS011;2901;42.140;24.760;2024-02-28T02:08:02;15.70;;;6.70;;
5752;SDS011;2901;42.140;24.760;2024-02-28T02:10:28;14.90;;;7.30;;
5752;SDS011;2901;42.140;24.760;2024-02-28T02:12:54;23.90;;;7.33;;
5752;SDS011;2901;42.140;24.760;2024-02-28T02:15:19;17.30;;;7.33;;
5752;SDS011;2901;42.140;24.760;2024-02-28T02:17:44;12.43;;;7.43;;
5752;SDS011;2901;42.140;24.760;2024-02-28T02:20:10;12.40;;;7.37;;
5752;SDS011;2901;42.140;24.760;2024-02-28T02:22:39;15.57;;;7.57;;
5752;SDS011;2901;42.140;24.760;2024-02-28T02:25:05;8.73;;;6.90;;
5752;SDS011;2901;42.140;24.760;2024-02-28T02:27:31;16.57;;;6.87;;
5752;SDS011;2901;42.140;24.760;2024-02-28T02:29:56;14.10;;;7.77;;
5752;SDS011;2901;42.140;24.760;2024-02-28T02:32:22;14.93;;;7.27;;
5752;SDS011;2901;42.140;24.760;2024-02-28T02:34:47;12.23;;;7.03;;
5752;SDS011;2901;42.140;24.760;2024-02-28T02:37:12;13.13;;;6.70;;
5752;SDS011;2901;42.140;24.760;2024-02-28T02:39:38;18.40;;;7.73;;
5752;SDS011;2901;42.140;24.760;2024-02-28T02:42:03;21.27;;;7.43;;
5752;SDS011;2901;42.140;24.760;2024-02-28T02:44:29;14.70;;;7.47;;
5752;SDS011;2901;42.140;24.760;2024-02-28T02:46:54;12.47;;;6.90;;
5752;SDS011;2901;42.140;24.760;2024-02-28T02:49:20;8.57;;;6.83;;
5752;SDS011;2901;42.140;24.760;2024-02-28T02:51:45;15.27;;;7.43;;
5752;SDS011;2901;42.140;24.760;2024-02-28T02:54:10;17.57;;;7.53;;
5752;SDS011;2901;42.140;24.760;2024-02-28T02:56:36;15.63;;;7.27;;
5752;SDS011;2901;42.140;24.760;2024-02-28T02:59:02;16.75;;;7.15;;
5752;SDS011;2901;42.140;24.760;2024-02-28T03:01:27;15.50;;;7.33;;
5752;SDS011;2901;42.140;24.760;2024-02-28T03:03:53;19.27;;;7.90;;
5752;SDS011;2901;42.140;24.760;2024-02-28T03:06:19;13.47;;;7.33;;
5752;SDS011;2901;42.140;24.760;2024-02-28T03:08:44;19.50;;;7.67;;
5752;SDS011;2901;42.140;24.760;2024-02-28T03:11:10;11.33;;;6.87;;
5752;SDS011;2901;42.140;24.760;2024-02-28T03:13:36;15.13;;;6.33;;
5752;SDS011;2901;42.140;24.760;2024-02-28T03:16:03;18.97;;;7.13;;
5752;SDS011;2901;42.140;24.760;2024-02-28T03:18:29;14.63;;;7.60;;
5752;SDS011;2901;42.140;24.760;2024-02-28T03:20:54;14.80;;;7.73;;
5752;SDS011;2901;42.140;24.760;2024-02-28T03:23:20;16.73;;;7.10;;
5752;SDS011;2901;42.140;24.760;2024-02-28T03:25:45;19.40;;;7.37;;
5752;SDS011;2901;42.140;24.760;2024-02-28T03:28:10;20.20;;;7.57;;
5752;SDS011;2901;42.140;24.760;2024-02-28T03:30:36;17.03;;;7.73;;
5752;SDS011;2901;42.140;24.760;2024-02-28T03:33:01;11.40;;;6.87;;
5752;SDS011;2901;42.140;24.760;2024-02-28T03:35:27;23.80;;;8.03;;
5752;SDS011;2901;42.140;24.760;2024-02-28T03:37:52;22.80;;;8.82;;
5752;SDS011;2901;42.140;24.760;2024-02-28T03:40:18;18.90;;;8.60;;
5752;SDS011;2901;42.140;24.760;2024-02-28T03:42:43;21.80;;;9.18;;
5752;SDS011;2901;42.140;24.760;2024-02-28T03:45:08;25.40;;;9.63;;
5752;SDS011;2901;42.140;24.760;2024-02-28T03:47:34;17.07;;;9.87;;
5752;SDS011;2901;42.140;24.760;2024-02-28T03:49:59;12.67;;;7.90;;
5752;SDS011;2901;42.140;24.760;2024-02-28T03:52:27;44.47;;;22.40;;
5752;SDS011;2901;42.140;24.760;2024-02-28T03:54:52;24.63;;;11.03;;
5752;SDS011;2901;42.140;24.760;2024-02-28T03:57:17;20.90;;;8.80;;
5752;SDS011;2901;42.140;24.760;2024-02-28T03:59:43;16.57;;;8.00;;
5752;SDS011;2901;42.140;24.760;2024-02-28T04:02:09;15.43;;;7.60;;
5752;SDS011;2901;42.140;24.760;2024-02-28T04:04:34;22.00;;;7.93;;
5752;SDS011;2901;42.140;24.760;2024-02-28T04:07:00;20.60;;;8.83;;
5752;SDS011;2901;42.140;24.760;2024-02-28T04:09:25;19.07;;;8.90;;
5752;SDS011;2901;42.140;24.760;2024-02-28T04:11:51;24.13;;;8.70;;
5752;SDS011;2901;42.140;24.760;2024-02-28T04:14:16;20.90;;;9.33;;
5752;SDS011;2901;42.140;24.760;2024-02-28T04:16:42;17.87;;;8.07;;
5752;SDS011;2901;42.140;24.760;2024-02-28T04:19:12;21.13;;;8.60;;
5752;SDS011;2901;42.140;24.760;2024-02-28T04:21:38;24.67;;;7.70;;
5752;SDS011;2901;42.140;24.760;2024-02-28T04:24:04;20.17;;;8.37;;
5752;SDS011;2901;42.140;24.760;2024-02-28T04:26:31;22.73;;;9.47;;
5752;SDS011;2901;42.140;24.760;2024-02-28T04:28:56;24.83;;;9.57;;
5752;SDS011;2901;42.140;24.760;2024-02-28T04:31:22;21.85;;;10.18;;
5752;SDS011;2901;42.140;24.760;2024-02-28T04:33:47;16.90;;;10.50;;
5752;SDS011;2901;42.140;24.760;2024-02-28T04:36:13;27.80;;;10.70;;
5752;SDS011;2901;42.140;24.760;2024-02-28T04:38:39;25.63;;;13.70;;
5752;SDS011;2901;42.140;24.760;2024-02-28T04:41:05;19.20;;;9.70;;
5752;SDS011;2901;42.140;24.760;2024-02-28T04:43:30;23.10;;;10.00;;
5752;SDS011;2901;42.140;24.760;2024-02-28T04:45:55;26.33;;;11.47;;
5752;SDS011;2901;42.140;24.760;2024-02-28T04:48:21;29.37;;;11.40;;
5752;SDS011;2901;42.140;24.760;2024-02-28T04:50:46;22.53;;;10.83;;
5752;SDS011;2901;42.140;24.760;2024-02-28T04:53:12;23.03;;;10.70;;
5752;SDS011;2901;42.140;24.760;2024-02-28T04:55:37;25.10;;;12.00;;
5752;SDS011;2901;42.140;24.760;2024-02-28T04:58:03;24.87;;;10.60;;
5752;SDS011;2901;42.140;24.760;2024-02-28T05:00:28;26.53;;;10.57;;
5752;SDS011;2901;42.140;24.760;2024-02-28T05:02:54;34.97;;;11.70;;
5752;SDS011;2901;42.140;24.760;2024-02-28T05:05:19;29.13;;;12.33;;
5752;SDS011;2901;42.140;24.760;2024-02-28T05:07:44;25.23;;;12.10;;
5752;SDS011;2901;42.140;24.760;2024-02-28T05:10:10;21.43;;;11.83;;
5752;SDS011;2901;42.140;24.760;2024-02-28T05:12:35;21.67;;;11.37;;
5752;SDS011;2901;42.140;24.760;2024-02-28T05:15:01;29.60;;;13.03;;
5752;SDS011;2901;42.140;24.760;2024-02-28T05:17:26;20.83;;;11.30;;
5752;SDS011;2901;42.140;24.760;2024-02-28T05:19:52;21.67;;;11.93;;
5752;SDS011;2901;42.140;24.760;2024-02-28T05:22:18;36.17;;;12.30;;
5752;SDS011;2901;42.140;24.760;2024-02-28T05:24:45;31.57;;;13.20;;
5752;SDS011;2901;42.140;24.760;2024-02-28T05:27:11;28.80;;;13.40;;
5752;SDS011;2901;42.140;24.760;2024-02-28T05:29:36;27.53;;;13.63;;
5752;SDS011;2901;42.140;24.760;2024-02-28T05:32:02;28.33;;;13.53;;
5752;SDS011;2901;42.140;24.760;2024-02-28T05:34:28;23.50;;;12.70;;
5752;SDS011;2901;42.140;24.760;2024-02-28T05:36:53;27.90;;;14.13;;
5752;SDS011;2901;42.140;24.760;2024-02-28T05:39:18;26.07;;;13.67;;
5752;SDS011;2901;42.140;24.760;2024-02-28T05:41:44;28.47;;;14.17;;
5752;SDS011;2901;42.140;24.760;2024-02-28T05:44:09;30.37;;;14.40;;
5752;SDS011;2901;42.140;24.760;2024-02-28T05:46:35;42.50;;;15.10;;
5752;SDS011;2901;42.140;24.760;2024-02-28T05:49:02;40.73;;;15.93;;
5752;SDS011;2901;42.140;24.760;2024-02-28T05:51:28;32.87;;;16.07;;
5752;SDS011;2901;42.140;24.760;2024-02-28T05:53:53;31.23;;;15.50;;
5752;SDS011;2901;42.140;24.760;2024-02-28T05:56:19;47.97;;;18.37;;
5752;SDS011;2901;42.140;24.760;2024-02-28T05:58:45;40.67;;;16.77;;
5752;SDS011;2901;42.140;24.760;2024-02-28T06:01:11;30.67;;;16.37;;
5752;SDS011;2901;42.140;24.760;2024-02-28T06:03:38;38.57;;;16.20;;
5752;SDS011;2901;42.140;24.760;2024-02-28T06:06:03;45.37;;;14.73;;
5752;SDS011;2901;42.140;24.760;2024-02-28T06:08:33;28.67;;;13.73;;
5752;SDS011;2901;42.140;24.760;2024-02-28T06:11:00;30.60;;;16.20;;
5752;SDS011;2901;42.140;24.760;2024-02-28T06:13:27;46.17;;;16.20;;
5752;SDS011;2901;42.140;24.760;2024-02-28T06:15:54;36.20;;;15.93;;
5752;SDS011;2901;42.140;24.760;2024-02-28T06:18:19;31.10;;;16.10;;
5752;SDS011;2901;42.140;24.760;2024-02-28T06:20:44;34.72;;;16.50;;
5752;SDS011;2901;42.140;24.760;2024-02-28T06:23:10;39.97;;;19.67;;
5752;SDS011;2901;42.140;24.760;2024-02-28T06:25:35;34.57;;;18.80;;
5752;SDS011;2901;42.140;24.760;2024-02-28T06:28:00;28.07;;;17.47;;
5752;SDS011;2901;42.140;24.760;2024-02-28T06:30:31;45.70;;;18.55;;
5752;SDS011;2901;42.140;24.760;2024-02-28T06:33:00;29.30;;;16.27;;
5752;SDS011;2901;42.140;24.760;2024-02-28T06:35:26;31.27;;;16.65;;
5752;SDS011;2901;42.140;24.760;2024-02-28T06:37:52;40.17;;;16.70;;
5752;SDS011;2901;42.140;24.760;2024-02-28T06:40:17;29.27;;;14.97;;
5752;SDS011;2901;42.140;24.760;2024-02-28T06:42:43;39.47;;;16.17;;
5752;SDS011;2901;42.140;24.760;2024-02-28T06:45:09;27.90;;;16.52;;
5752;SDS011;2901;42.140;24.760;2024-02-28T06:47:34;42.55;;;17.10;;
5752;SDS011;2901;42.140;24.760;2024-02-28T06:50:01;31.17;;;16.30;;
5752;SDS011;2901;42.140;24.760;2024-02-28T06:52:30;30.42;;;14.60;;
5752;SDS011;2901;42.140;24.760;2024-02-28T06:54:55;31.83;;;14.15;;
5752;SDS011;2901;42.140;24.760;2024-02-28T06:57:21;20.55;;;12.68;;
5752;SDS011;2901;42.140;24.760;2024-02-28T06:59:46;30.55;;;14.50;;
5752;SDS011;2901;42.140;24.760;2024-02-28T07:02:12;25.48;;;13.02;;
5752;SDS011;2901;42.140;24.760;2024-02-28T07:04:38;36.72;;;12.95;;
5752;SDS011;2901;42.140;24.760;2024-02-28T07:07:03;31.02;;;13.50;;
5752;SDS011;2901;42.140;24.760;2024-02-28T07:09:29;29.13;;;14.20;;
5752;SDS011;2901;42.140;24.760;2024-02-28T07:11:57;34.83;;;15.32;;
5752;SDS011;2901;42.140;24.760;2024-02-28T07:14:23;33.15;;;15.40;;
5752;SDS011;2901;42.140;24.760;2024-02-28T07:16:48;34.28;;;14.50;;
5752;SDS011;2901;42.140;24.760;2024-02-28T07:19:14;27.20;;;13.93;;
5752;SDS011;2901;42.140;24.760;2024-02-28T07:21:39;36.58;;;12.60;;
5752;SDS011;2901;42.140;24.760;2024-02-28T07:24:05;35.83;;;12.90;;
5752;SDS011;2901;42.140;24.760;2024-02-28T07:26:31;26.33;;;12.68;;
5752;SDS011;2901;42.140;24.760;2024-02-28T07:28:57;26.13;;;12.05;;
5752;SDS011;2901;42.140;24.760;2024-02-28T07:31:22;34.35;;;13.02;;
5752;SDS011;2901;42.140;24.760;2024-02-28T07:33:48;39.90;;;13.48;;
5752;SDS011;2901;42.140;24.760;2024-02-28T07:36:13;33.17;;;13.15;;
5752;SDS011;2901;42.140;24.760;2024-02-28T07:38:41;38.20;;;13.32;;
5752;SDS011;2901;42.140;24.760;2024-02-28T07:41:07;34.90;;;12.10;;
5752;SDS011;2901;42.140;24.760;2024-02-28T07:43:32;22.35;;;12.63;;
5752;SDS011;2901;42.140;24.760;2024-02-28T07:46:02;33.65;;;13.18;;
5752;SDS011;2901;42.140;24.760;2024-02-28T07:48:34;30.08;;;12.60;;
5752;SDS011;2901;42.140;24.760;2024-02-28T07:51:00;40.88;;;14.10;;
5752;SDS011;2901;42.140;24.760;2024-02-28T07:53:28;41.97;;;13.30;;
5752;SDS011;2901;42.140;24.760;2024-02-28T07:55:53;21.35;;;11.95;;
5752;SDS011;2901;42.140;24.760;2024-02-28T07:58:19;33.00;;;12.55;;
5752;SDS011;2901;42.140;24.760;2024-02-28T08:00:44;32.92;;;13.40;;
5752;SDS011;2901;42.140;24.760;2024-02-28T08:03:10;38.95;;;13.40;;
5752;SDS011;2901;42.140;24.760;2024-02-28T08:05:35;25.40;;;12.57;;
5752;SDS011;2901;42.140;24.760;2024-02-28T08:08:07;38.70;;;13.85;;
5752;SDS011;2901;42.140;24.760;2024-02-28T08:10:32;30.83;;;14.63;;
5752;SDS011;2901;42.140;24.760;2024-02-28T08:12:58;26.65;;;14.32;;
5752;SDS011;2901;42.140;24.760;2024-02-28T08:15:24;36.63;;;13.60;;
5752;SDS011;2901;42.140;24.760;2024-02-28T08:17:49;31.52;;;14.63;;
5752;SDS011;2901;42.140;24.760;2024-02-28T08:20:14;29.08;;;13.45;;
5752;SDS011;2901;42.140;24.760;2024-02-28T08:22:40;38.35;;;14.00;;
5752;SDS011;2901;42.140;24.760;2024-02-28T08:25:05;33.70;;;14.98;;
5752;SDS011;2901;42.140;24.760;2024-02-28T08:27:32;26.42;;;13.80;;
5752;SDS011;2901;42.140;24.760;2024-02-28T08:29:59;42.58;;;16.33;;
5752;SDS011;2901;42.140;24.760;2024-02-28T08:32:25;35.08;;;16.95;;
5752;SDS011;2901;42.140;24.760;2024-02-28T08:34:50;34.22;;;15.85;;
5752;SDS011;2901;42.140;24.760;2024-02-28T08:37:16;38.50;;;18.45;;
5752;SDS011;2901;42.140;24.760;2024-02-28T08:39:42;38.17;;;16.35;;
5752;SDS011;2901;42.140;24.760;2024-02-28T08:42:07;38.83;;;16.45;;
5752;SDS011;2901;42.140;24.760;2024-02-28T08:44:33;30.23;;;16.20;;
5752;SDS011;2901;42.140;24.760;2024-02-28T08:46:58;29.83;;;16.65;;
5752;SDS011;2901;42.140;24.760;2024-02-28T08:49:23;37.85;;;18.10;;
5752;SDS011;2901;42.140;24.760;2024-02-28T08:51:49;43.70;;;19.00;;
5752;SDS011;2901;42.140;24.760;2024-02-28T08:54:14;32.33;;;17.42;;
5752;SDS011;2901;42.140;24.760;2024-02-28T08:56:40;38.33;;;19.42;;
5752;SDS011;2901;42.140;24.760;2024-02-28T08:59:05;41.15;;;18.50;;
5752;SDS011;2901;42.140;24.760;2024-02-28T09:01:31;40.25;;;19.98;;
5752;SDS011;2901;42.140;24.760;2024-02-28T09:03:58;36.67;;;19.58;;
5752;SDS011;2901;42.140;24.760;2024-02-28T09:06:23;41.35;;;20.80;;
5752;SDS011;2901;42.140;24.760;2024-02-28T09:08:48;54.70;;;21.80;;
5752;SDS011;2901;42.140;24.760;2024-02-28T09:11:14;39.97;;;19.67;;
5752;SDS011;2901;42.140;24.760;2024-02-28T09:13:39;33.22;;;19.95;;
5752;SDS011;2901;42.140;24.760;2024-02-28T09:16:05;44.72;;;20.00;;
5752;SDS011;2901;42.140;24.760;2024-02-28T09:18:30;40.00;;;19.67;;
5752;SDS011;2901;42.140;24.760;2024-02-28T09:20:55;41.17;;;20.98;;
5752;SDS011;2901;42.140;24.760;2024-02-28T09:23:21;36.67;;;21.35;;
5752;SDS011;2901;42.140;24.760;2024-02-28T09:25:46;40.22;;;20.77;;
5752;SDS011;2901;42.140;24.760;2024-02-28T09:28:12;45.47;;;24.08;;
5752;SDS011;2901;42.140;24.760;2024-02-28T09:30:40;32.15;;;18.60;;
5752;SDS011;2901;42.140;24.760;2024-02-28T09:33:05;35.35;;;19.75;;
5752;SDS011;2901;42.140;24.760;2024-02-28T09:35:31;39.42;;;18.80;;
5752;SDS011;2901;42.140;24.760;2024-02-28T09:37:56;37.50;;;19.98;;
5752;SDS011;2901;42.140;24.760;2024-02-28T09:40:22;42.45;;;20.17;;
5752;SDS011;2901;42.140;24.760;2024-02-28T09:42:50;36.47;;;19.65;;
5752;SDS011;2901;42.140;24.760;2024-02-28T09:45:21;35.30;;;20.45;;
5752;SDS011;2901;42.140;24.760;2024-02-28T09:47:47;37.63;;;19.55;;
5752;SDS011;2901;42.140;24.760;2024-02-28T09:50:13;36.42;;;18.08;;
5752;SDS011;2901;42.140;24.760;2024-02-28T09:52:38;29.75;;;15.18;;
5752;SDS011;2901;42.140;24.760;2024-02-28T09:55:04;24.52;;;15.85;;
5752;SDS011;2901;42.140;24.760;2024-02-28T09:57:30;26.55;;;15.75;;
5752;SDS011;2901;42.140;24.760;2024-02-28T09:59:57;31.38;;;17.80;;
5752;SDS011;2901;42.140;24.760;2024-02-28T10:02:24;35.58;;;17.25;;
5752;SDS011;2901;42.140;24.760;2024-02-28T10:04:52;27.13;;;18.33;;
5752;SDS011;2901;42.140;24.760;2024-02-28T10:07:17;43.22;;;18.85;;
5752;SDS011;2901;42.140;24.760;2024-02-28T10:09:43;28.45;;;15.85;;
5752;SDS011;2901;42.140;24.760;2024-02-28T10:12:08;30.23;;;17.92;;
5752;SDS011;2901;42.140;24.760;2024-02-28T10:14:34;27.80;;;15.50;;
5752;SDS011;2901;42.140;24.760;2024-02-28T10:16:59;27.52;;;15.65;;
5752;SDS011;2901;42.140;24.760;2024-02-28T10:19:25;26.95;;;13.43;;
5752;SDS011;2901;42.140;24.760;2024-02-28T10:21:50;25.92;;;15.30;;
5752;SDS011;2901;42.140;24.760;2024-02-28T10:24:16;23.52;;;14.35;;
5752;SDS011;2901;42.140;24.760;2024-02-28T10:26:42;30.33;;;14.77;;
5752;SDS011;2901;42.140;24.760;2024-02-28T10:29:20;31.02;;;15.90;;
5752;SDS011;2901;42.140;24.760;2024-02-28T10:31:50;20.92;;;14.80;;
5752;SDS011;2901;42.140;24.760;2024-02-28T10:34:16;32.72;;;16.02;;
5752;SDS011;2901;42.140;24.760;2024-02-28T10:36:43;18.77;;;13.25;;
5752;SDS011;2901;42.140;24.760;2024-02-28T10:39:10;28.05;;;16.45;;
5752;SDS011;2901;42.140;24.760;2024-02-28T10:41:39;21.10;;;14.52;;
5752;SDS011;2901;42.140;24.760;2024-02-28T10:44:05;22.65;;;14.02;;
5752;SDS011;2901;42.140;24.760;2024-02-28T10:46:31;27.17;;;14.75;;
5752;SDS011;2901;42.140;24.760;2024-02-28T10:48:57;17.92;;;12.25;;
5752;SDS011;2901;42.140;24.760;2024-02-28T10:51:23;18.27;;;13.75;;
5752;SDS011;2901;42.140;24.760;2024-02-28T10:56:34;21.20;;;13.15;;
5752;SDS011;2901;42.140;24.760;2024-02-28T10:59:00;20.00;;;13.85;;
5752;SDS011;2901;42.140;24.760;2024-02-28T11:01:27;34.00;;;14.55;;
5752;SDS011;2901;42.140;24.760;2024-02-28T11:03:53;35.15;;;17.33;;
5752;SDS011;2901;42.140;24.760;2024-02-28T11:06:19;23.73;;;13.63;;
5752;SDS011;2901;42.140;24.760;2024-02-28T11:08:49;23.25;;;13.48;;
5752;SDS011;2901;42.140;24.760;2024-02-28T11:11:21;18.00;;;12.88;;
5752;SDS011;2901;42.140;24.760;2024-02-28T11:13:57;23.05;;;13.25;;
5752;SDS011;2901;42.140;24.760;2024-02-28T11:16:32;32.17;;;12.18;;
5752;SDS011;2901;42.140;24.760;2024-02-28T11:18:58;19.83;;;11.63;;
5752;SDS011;2901;42.140;24.760;2024-02-28T11:21:28;23.80;;;12.40;;
5752;SDS011;2901;42.140;24.760;2024-02-28T11:23:57;22.05;;;12.30;;
5752;SDS011;2901;42.140;24.760;2024-02-28T11:26:23;18.45;;;11.93;;
5752;SDS011;2901;42.140;24.760;2024-02-28T11:28:50;21.05;;;11.57;;
5752;SDS011;2901;42.140;24.760;2024-02-28T11:31:16;24.58;;;12.30;;
5752;SDS011;2901;42.140;24.760;2024-02-28T11:33:41;24.92;;;13.07;;
5752;SDS011;2901;42.140;24.760;2024-02-28T11:36:07;17.92;;;12.35;;
5752;SDS011;2901;42.140;24.760;2024-02-28T11:38:34;23.88;;;11.60;;
5752;SDS011;2901;42.140;24.760;2024-02-28T11:41:03;20.85;;;11.15;;
5752;SDS011;2901;42.140;24.760;2024-02-28T11:43:30;28.23;;;11.25;;
5752;SDS011;2901;42.140;24.760;2024-02-28T11:45:57;21.27;;;11.63;;
5752;SDS011;2901;42.140;24.760;2024-02-28T11:48:23;17.42;;;10.40;;
5752;SDS011;2901;42.140;24.760;2024-02-28T11:50:50;14.82;;;10.32;;
5752;SDS011;2901;42.140;24.760;2024-02-28T11:53:16;13.68;;;11.18;;
5752;SDS011;2901;42.140;24.760;2024-02-28T11:55:42;18.38;;;10.57;;
5752;SDS011;2901;42.140;24.760;2024-02-28T11:58:08;14.82;;;10.88;;
5752;SDS011;2901;42.140;24.760;2024-02-28T12:00:34;14.13;;;10.82;;
5752;SDS011;2901;42.140;24.760;2024-02-28T12:03:05;12.77;;;10.80;;
5752;SDS011;2901;42.140;24.760;2024-02-28T12:05:31;16.33;;;10.70;;
5752;SDS011;2901;42.140;24.760;2024-02-28T12:07:56;25.20;;;11.70;;
5752;SDS011;2901;42.140;24.760;2024-02-28T12:10:23;12.38;;;11.05;;
5752;SDS011;2901;42.140;24.760;2024-02-28T12:12:48;15.60;;;10.40;;
5752;SDS011;2901;42.140;24.760;2024-02-28T12:15:15;15.45;;;9.88;;
5752;SDS011;2901;42.140;24.760;2024-02-28T12:17:42;17.75;;;11.23;;
5752;SDS011;2901;42.140;24.760;2024-02-28T12:20:08;17.05;;;12.15;;
5752;SDS011;2901;42.140;24.760;2024-02-28T12:22:33;15.27;;;11.70;;
5752;SDS011;2901;42.140;24.760;2024-02-28T12:24:59;19.98;;;11.40;;
5752;SDS011;2901;42.140;24.760;2024-02-28T12:27:29;20.13;;;12.73;;
5752;SDS011;2901;42.140;24.760;2024-02-28T12:29:56;31.45;;;13.38;;
5752;SDS011;2901;42.140;24.760;2024-02-28T12:32:21;23.00;;;13.35;;
5752;SDS011;2901;42.140;24.760;2024-02-28T12:34:47;18.45;;;12.23;;
5752;SDS011;2901;42.140;24.760;2024-02-28T12:37:12;17.40;;;11.15;;
5752;SDS011;2901;42.140;24.760;2024-02-28T12:39:37;27.60;;;12.98;;
5752;SDS011;2901;42.140;24.760;2024-02-28T12:42:03;15.70;;;10.73;;
5752;SDS011;2901;42.140;24.760;2024-02-28T12:44:29;17.95;;;11.23;;
5752;SDS011;2901;42.140;24.760;2024-02-28T12:46:54;23.05;;;13.88;;
5752;SDS011;2901;42.140;24.760;2024-02-28T12:49:19;18.02;;;13.18;;
5752;SDS011;2901;42.140;24.760;2024-02-28T12:51:45;20.52;;;12.60;;
5752;SDS011;2901;42.140;24.760;2024-02-28T12:54:11;18.38;;;11.13;;
5752;SDS011;2901;42.140;24.760;2024-02-28T12:56:40;23.38;;;11.60;;
5752;SDS011;2901;42.140;24.760;2024-02-28T12:59:09;15.10;;;11.43;;
5752;SDS011;2901;42.140;24.760;2024-02-28T13:01:36;14.18;;;10.85;;
5752;SDS011;2901;42.140;24.760;2024-02-28T13:04:01;16.10;;;10.85;;
5752;SDS011;2901;42.140;24.760;2024-02-28T13:06:27;24.00;;;11.45;;
5752;SDS011;2901;42.140;24.760;2024-02-28T13:08:53;21.38;;;13.60;;
5752;SDS011;2901;42.140;24.760;2024-02-28T13:11:19;23.17;;;11.55;;
5752;SDS011;2901;42.140;24.760;2024-02-28T13:13:46;20.02;;;12.85;;
5752;SDS011;2901;42.140;24.760;2024-02-28T13:16:13;22.85;;;11.82;;
5752;SDS011;2901;42.140;24.760;2024-02-28T13:18:38;23.23;;;12.63;;
5752;SDS011;2901;42.140;24.760;2024-02-28T13:21:04;19.90;;;11.93;;
5752;SDS011;2901;42.140;24.760;2024-02-28T13:23:30;21.85;;;12.50;;
5752;SDS011;2901;42.140;24.760;2024-02-28T13:25:59;18.63;;;12.30;;
5752;SDS011;2901;42.140;24.760;2024-02-28T13:28:25;16.17;;;10.75;;
5752;SDS011;2901;42.140;24.760;2024-02-28T13:30:57;18.38;;;12.18;;
5752;SDS011;2901;42.140;24.760;2024-02-28T13:33:24;20.20;;;12.30;;
5752;SDS011;2901;42.140;24.760;2024-02-28T13:35:49;18.75;;;11.35;;
5752;SDS011;2901;42.140;24.760;2024-02-28T13:38:15;26.83;;;12.70;;
5752;SDS011;2901;42.140;24.760;2024-02-28T13:40:40;17.33;;;11.95;;
5752;SDS011;2901;42.140;24.760;2024-02-28T13:43:09;27.42;;;12.88;;
5752;SDS011;2901;42.140;24.760;2024-02-28T13:45:35;23.05;;;13.18;;
5752;SDS011;2901;42.140;24.760;2024-02-28T13:48:00;18.65;;;11.50;;
5752;SDS011;2901;42.140;24.760;2024-02-28T13:50:26;16.88;;;12.00;;
5752;SDS011;2901;42.140;24.760;2024-02-28T13:52:56;22.48;;;14.20;;
5752;SDS011;2901;42.140;24.760;2024-02-28T13:55:22;20.58;;;11.98;;
5752;SDS011;2901;42.140;24.760;2024-02-28T13:57:48;19.15;;;12.15;;
5752;SDS011;2901;42.140;24.760;2024-02-28T14:00:13;18.90;;;13.50;;
5752;SDS011;2901;42.140;24.760;2024-02-28T14:02:39;21.77;;;12.63;;
5752;SDS011;2901;42.140;24.760;2024-02-28T14:05:05;24.65;;;13.00;;
5752;SDS011;2901;42.140;24.760;2024-02-28T14:07:32;22.23;;;12.50;;
5752;SDS011;2901;42.140;24.760;2024-02-28T14:09:58;21.42;;;13.38;;
5752;SDS011;2901;42.140;24.760;2024-02-28T14:12:23;27.10;;;12.63;;
5752;SDS011;2901;42.140;24.760;2024-02-28T14:14:49;32.47;;;14.82;;
5752;SDS011;2901;42.140;24.760;2024-02-28T14:17:15;21.88;;;13.48;;
5752;SDS011;2901;42.140;24.760;2024-02-28T14:19:40;22.85;;;12.85;;
5752;SDS011;2901;42.140;24.760;2024-02-28T14:22:06;22.20;;;12.30;;
5752;SDS011;2901;42.140;24.760;2024-02-28T14:24:34;23.98;;;11.93;;
5752;SDS011;2901;42.140;24.760;2024-02-28T14:27:01;24.17;;;12.70;;
5752;SDS011;2901;42.140;24.760;2024-02-28T14:29:26;24.25;;;12.65;;
5752;SDS011;2901;42.140;24.760;2024-02-28T14:31:52;25.52;;;12.77;;
5752;SDS011;2901;42.140;24.760;2024-02-28T14:34:17;23.27;;;12.70;;